Latest Coastal Weather Observations for Maningrida Airport

IDD60701

Issued at 1:05 pm CST Sunday 23 November 2014 (issued every 10 minutes, with the page automatically refreshed every 10 minutes)

About coastal observations | Map of coastal stations | Coastal observations for NT | Marine services | Other Formats
Station Details ID: 014405 Name: MANINGRIDA AIRPORT Lat: -12.06 Lon: 134.23 Height: 28.1 m
Data from the previous 72 hours. | See also: Recent months at Maningrida Airport
Date/Time
CST
Temp

°C
Wind Pressure Rain
since 9am
mm
Weather Cloud Vis
km
Sea
Height
m
Swell
Dir
 
Speed
knots
Gust
knots
hPa Trend Height
m
Period
s
Dir
23/01:00pm 33.7 NE 11 19 1009.7 - 0.0 - - 10 - - - -
23/12:30pm 34.1 NE 12 17 1009.9 - 0.0 - - 10 - - - -
23/12:00pm 34.8 NE 11 16 1010.4 - 0.0 - - 10 - - - -
23/11:30am 34.3 ENE 9 15 1011.0 - 0.0 - - 10 - - - -
23/11:00am 33.8 E 10 14 1011.2 - 0.0 - - 10 - - - -
23/10:30am 33.1 NNE 9 15 1011.3 - 0.0 - - 10 - - - -
23/10:00am 31.9 N 8 11 1011.4 - 0.0 - - 10 - - - -
23/09:30am 32.6 E 6 10 1011.6 - 0.0 - - 10 - - - -
23/09:00am 31.6 NNE 5 7 1011.6 - 0.0 - Mostly clear 10 - - - -
23/08:30am 30.2 NNE 4 6 1011.6 - 0.0 - Partly cloudy 10 - - - -
23/08:00am 30.0 SSE 3 5 1011.3 - 0.0 - - 10 - - - -
23/07:30am 28.4 SSW 3 4 1011.2 - 0.0 - - 10 - - - -
23/07:00am 27.0 SW 4 5 1010.9 - 0.0 - - 10 - - - -
23/06:30am 25.5 CALM 0 0 1010.6 - 0.0 - - 10 - - - -
23/06:00am 25.7 CALM 0 0 1010.2 - 0.0 - - 10 - - - -
23/05:30am 25.8 CALM 0 0 1010.1 - 0.0 - Partly cloudy 10 - - - -
23/05:00am 26.0 SSE 3 3 1009.9 - 0.0 - Partly cloudy 10 - - - -
23/04:30am 25.3 SSE 1 6 1009.8 - 0.0 - - 10 - - - -
23/04:00am 25.4 CALM 0 0 1009.7 - 0.0 - - 10 - - - -
23/03:30am 25.6 CALM 0 0 1009.5 - 0.0 - Partly cloudy 10 - - - -
23/03:00am 25.7 CALM 0 0 1009.6 - 0.0 - Mostly clear 10 - - - -
23/02:30am 25.7 SSE 3 3 1009.6 - 0.0 - - 10 - - - -
23/02:00am 26.1 SE 3 4 1009.6 - 0.0 - - 10 - - - -
23/01:30am 26.3 SE 2 3 1009.8 - 0.0 - - 10 - - - -
23/01:00am 26.7 SE 1 3 1010.1 - 0.0 - Partly cloudy 10 - - - -
23/12:30am 26.9 ESE 4 4 1010.4 - 0.0 - Partly cloudy 10 - - - -
23/12:00am 27.3 CALM 0 0 1010.4 - 0.0 - - 10 - - - -
 
Date/Time
CST
Temp

°C
Wind Pressure Rain
since 9am
mm
Weather Cloud Vis
km
Sea
Height
m
Swell
Dir
 
Speed
knots
Gust
knots
hPa Trend Height
m
Period
s
Dir
22/11:30pm 27.5 ESE 3 4 1010.5 - 0.0 - - 7 - - - -
22/11:00pm 28.0 ENE 3 5 1010.4 - 0.0 - - 10 - - - -
22/10:30pm 28.3 NE 4 5 1010.3 - 0.0 - - 10 - - - -
22/10:00pm 28.6 NNE 5 6 1010.1 - 0.0 - - 10 - - - -
22/09:30pm 28.8 NNE 5 8 1010.1 - 0.0 - - 10 - - - -
22/09:00pm 29.0 NNE 6 9 1009.8 - 0.0 - - 10 - - - -
22/08:30pm 29.2 NNE 8 12 1009.7 - 0.0 - - 10 - - - -
22/08:00pm 29.3 N 8 11 1009.5 - 0.0 - - 10 - - - -
22/07:30pm 29.3 NNE 9 12 1009.1 - 0.0 - - 10 - - - -
22/07:00pm 29.4 NNE 8 11 1008.6 - 0.0 - - 10 - - - -
22/06:30pm 29.7 NNE 9 13 1008.5 - 0.0 - - 10 - - - -
22/06:00pm 30.4 NNE 10 14 1008.3 - 0.0 - - 10 - - - -
22/05:30pm 31.5 N 11 16 1008.3 - 0.0 - - 10 - - - -
22/05:00pm 31.7 NNE 10 16 1008.2 - 0.0 - - 10 - - - -
22/04:30pm 31.8 NE 11 14 1008.2 - 0.0 - - 10 - - - -
22/04:00pm 33.1 NNE 11 15 1008.1 - 0.0 - - 10 - - - -
22/03:30pm 32.4 NNE 11 16 1008.4 - 0.0 - - 10 - - - -
22/03:00pm 32.3 NNE 11 16 1008.6 - 0.0 - - 10 - - - -
22/02:30pm 32.7 NNE 12 16 1009.0 - 0.0 - - 10 - - - -
22/02:00pm 33.4 N 11 16 1009.3 - 0.0 - - 10 - - - -
22/01:30pm 33.4 NNE 12 17 1009.8 - 0.0 - - 10 - - - -
22/01:00pm 34.6 NNE 11 16 1010.1 - 0.0 - - 10 - - - -
22/12:30pm 33.1 N 12 16 1010.4 - 0.0 - - 10 - - - -
22/12:00pm 32.9 NNE 10 14 1010.7 - 0.0 - - 10 - - - -
22/11:30am 32.8 NE 10 17 1011.1 - 0.0 - - 10 - - - -
22/11:00am 32.7 NE 11 14 1011.3 - 0.0 - Partly cloudy 10 - - - -
22/10:30am 32.1 ENE 9 15 1011.5 - 0.0 - Partly cloudy 10 - - - -
22/10:00am 32.5 E 9 14 1011.6 - 0.0 - - 10 - - - -
22/09:30am 32.3 E 8 11 1011.7 - 0.0 - Partly cloudy 10 - - - -
22/09:00am 32.0 E 7 11 1011.7 - 0.0 - Mostly clear 10 - - - -
22/08:30am 30.6 N 3 7 1011.3 - 0.0 - Partly cloudy 10 - - - -
22/08:00am 29.9 ESE 4 6 1011.2 - 0.0 - - 10 - - - -
22/07:30am 28.8 SSE 3 4 1010.9 - 0.0 - - 10 - - - -
22/07:00am 27.3 S 3 5 1010.7 - 0.0 - Partly cloudy 10 - - - -
22/06:30am 26.1 SSW 3 5 1010.4 - 0.0 - Partly cloudy 10 - - - -
22/06:00am 25.9 SSW 4 5 1010.0 - 0.0 - Mostly clear 10 - - - -
22/05:30am 27.1 CALM 0 0 1009.9 - 0.0 - - 10 - - - -
22/05:00am 27.8 NE 3 5 1009.5 - 0.0 - - 10 - - - -
22/04:30am 28.1 NE 6 9 1009.2 - 0.0 - Partly cloudy 10 - - - -
22/04:00am 28.2 NNE 5 7 1009.1 - 0.0 - Partly cloudy 10 - - - -
22/03:30am 28.1 NE 7 9 1008.9 - 0.0 - - 10 - - - -
22/03:00am 28.1 NE 6 8 1008.8 - 0.0 - Mostly clear 10 - - - -
22/02:30am 28.4 NNE 6 8 1008.9 - 0.0 - Partly cloudy 10 - - - -
22/02:00am 28.1 NNE 5 7 1009.0 - 0.0 - Partly cloudy 10 - - - -
22/01:30am 28.0 NE 6 9 1009.3 - 0.0 - - 10 - - - -
22/01:00am 27.9 NE 4 6 1009.6 - 0.0 - Partly cloudy 10 - - - -
22/12:30am 27.6 NE 2 4 1009.7 - 0.0 - Partly cloudy 10 - - - -
22/12:00am 27.4 E 2 3 1009.9 - 0.0 - Partly cloudy 10 - - - -
 
Date/Time
CST
Temp

°C
Wind Pressure Rain
since 9am
mm
Weather Cloud Vis
km
Sea
Height
m
Swell
Dir
 
Speed
knots
Gust
knots
hPa Trend Height
m
Period
s
Dir
21/11:30pm 27.1 E 3 3 1009.9 - 0.0 - Partly cloudy 10 - - - -
21/11:00pm 27.7 ENE 3 4 1009.8 - 0.0 - - 10 - - - -
21/10:30pm 27.9 NE 3 4 1009.7 - 0.0 - - 10 - - - -
21/10:00pm 28.1 NE 4 6 1009.4 - 0.0 - - 10 - - - -
21/09:30pm 28.3 NE 4 5 1009.4 - 0.0 - - 10 - - - -
21/09:00pm 28.5 NNE 5 7 1009.0 - 0.0 - - 10 - - - -
21/08:30pm 28.7 NNE 5 7 1008.9 - 0.0 - - 10 - - - -
21/08:00pm 29.0 N 6 9 1008.7 - 0.0 - - 10 - - - -
21/07:30pm 28.9 N 7 9 1008.4 - 0.0 - - 10 - - - -
21/07:00pm 29.1 N 8 11 1008.4 - 0.0 - - 10 - - - -
21/06:30pm 29.3 N 9 12 1008.1 - 0.0 - - 10 - - - -
21/06:00pm 29.8 N 9 12 1008.2 - 0.0 - - 10 - - - -
21/05:30pm 30.3 N 9 12 1008.4 - 0.0 - - 10 - - - -
21/05:00pm 30.8 N 9 13 1008.3 - 0.0 - - 10 - - - -
21/04:30pm 31.4 N 10 13 1008.3 - 0.0 - - 10 - - - -
21/04:00pm 32.0 N 10 13 1008.3 - 0.0 - Partly cloudy 10 - - - -
21/03:30pm 31.6 N 11 14 1008.5 - 0.0 - Partly cloudy 10 - - - -
21/03:00pm 32.8 N 11 17 1008.8 - 0.0 - Mostly clear 10 - - - -
21/02:30pm 32.4 N 12 16 1008.8 - 0.0 - Partly cloudy 10 - - - -
21/02:00pm 32.4 NNE 11 16 1009.1 - 0.0 - Partly cloudy 10 - - - -
21/01:30pm 32.3 NE 12 17 1009.3 - 0.0 - Partly cloudy 10 - - - -
21/01:00pm 32.9 NE 11 17 1009.8 - 0.0 - Partly cloudy 10 - - - -
21/12:30pm 33.3 NE 8 11 1010.3 - 0.0 - Partly cloudy 10 - - - -
21/12:00pm 32.3 NE 9 15 1010.8 - 0.0 - Mostly clear 10 - - - -
21/11:30am 31.7 NE 10 14 1011.2 - 0.0 - Partly cloudy 10 - - - -
21/11:00am 31.7 NNE 12 15 1011.4 - 0.0 - Partly cloudy 10 - - - -
21/10:30am 31.4 NE 11 13 1011.7 - 0.0 - Partly cloudy 10 - - - -
21/10:00am 32.3 N 9 11 1011.7 - 0.0 - Partly cloudy 10 - - - -
21/09:30am 31.5 NE 8 14 1011.8 - 0.0 - Partly cloudy 10 - - - -
21/09:00am 30.7 NE 8 11 1011.8 - 0.0 - - 10 - - - -
21/08:30am 29.9 NNE 6 9 1011.5 - 0.0 - Partly cloudy 10 - - - -
21/08:00am 29.8 ENE 5 7 1011.4 - 0.0 - - 10 - - - -
21/07:30am 28.8 SE 4 6 1011.3 - 0.0 - Partly cloudy 10 - - - -
21/07:00am 27.8 S 1 4 1010.7 - 0.0 - - 10 - - - -
21/06:30am 25.9 S 3 4 1010.2 - 0.0 - - 10 - - - -
21/06:00am 25.5 S 3 4 1009.7 - 0.0 - Partly cloudy 10 - - - -
21/05:30am 25.4 CALM 0 0 1009.3 - 0.0 - Partly cloudy 10 - - - -
21/05:00am 25.7 S 3 5 1008.9 - 0.0 - Partly cloudy 10 - - - -
21/04:30am 26.0 SSW 4 6 1008.8 - 0.0 - Partly cloudy 10 - - - -
21/04:00am 26.4 CALM 0 0 1008.4 - 0.0 - Partly cloudy 10 - - - -
21/03:30am 27.8 ENE 1 3 1008.4 - 0.0 - Partly cloudy 10 - - - -
21/03:00am 28.0 E 2 4 1008.5 - 0.0 - Partly cloudy 10 - - - -
21/02:30am 28.2 ENE 4 6 1008.8 - 0.0 - Partly cloudy 10 - - - -
21/02:00am 28.5 ENE 7 11 1009.1 - 0.0 - Partly cloudy 10 - - - -
21/01:30am 28.3 ENE 5 7 1009.5 - 0.0 - Partly cloudy 10 - - - -
21/01:00am 28.1 E 4 5 1009.7 - 0.0 - Partly cloudy 10 - - - -
21/12:30am 28.4 NE 5 8 1009.9 - 0.0 - - 10 - - - -
21/12:00am 28.4 ENE 7 10 1010.0 - 0.0 - Partly cloudy 10 - - - -
 
Date/Time
CST
Temp

°C
Wind Pressure Rain
since 9am
mm
Weather Cloud Vis
km
Sea
Height
m
Swell
Dir
 
Speed
knots
Gust
knots
hPa Trend Height
m
Period
s
Dir
20/11:30pm 28.4 ENE 6 9 1010.4 - 0.0 - Partly cloudy 10 - - - -
20/11:00pm 28.3 ENE 5 7 1010.4 - 0.0 - Partly cloudy 10 - - - -
20/10:30pm 28.4 ENE 5 7 1010.2 - 0.0 - - 10 - - - -
20/10:00pm 28.6 NNE 7 10 1010.0 - 0.0 - - 10 - - - -
20/09:30pm 28.8 NE 6 9 1010.0 - 0.0 - Partly cloudy 10 - - - -
20/09:00pm 28.9 NE 7 10 1009.8 - 0.0 - - 10 - - - -
20/08:30pm 29.0 NE 7 10 1009.5 - 0.0 - - 10 - - - -
20/08:00pm 29.2 NNE 7 9 1009.1 - 0.0 - - 10 - - - -
20/07:30pm 29.3 NNE 7 10 1008.8 - 0.0 - - 10 - - - -
20/07:00pm 29.7 NNE 7 11 1008.5 - 0.0 - - 10 - - - -
20/06:30pm 30.0 N 9 12 1008.0 - 0.0 - - 10 - - - -
20/06:00pm 31.1 NNE 9 12 1007.7 - 0.0 - - 10 - - - -
20/05:30pm 31.6 NNE 9 13 1007.8 - 0.0 - - 10 - - - -
20/05:00pm 31.7 N 11 15 1007.5 - 0.0 - - 10 - - - -
20/04:30pm 32.1 NNE 11 17 1007.8 - 0.0 - - 10 - - - -
20/04:00pm 32.7 NNE 11 15 1008.0 - 0.0 - - 10 - - - -
20/03:30pm 32.8 NNE 12 17 1008.3 - 0.0 - - 10 - - - -
20/03:00pm 33.0 N 12 18 1008.4 - 0.0 - - 10 - - - -
20/02:30pm 33.1 NE 11 18 1008.6 - 0.0 - - 10 - - - -
20/02:00pm 34.3 NE 11 17 1008.9 - 0.0 - - 10 - - - -
20/01:30pm 33.6 NE 11 15 1009.1 - 0.0 - - 10 - - - -

Other Formats:

Comma delimited format used in spreadsheet applications
http://www.bom.gov.au/fwo/IDD60701/IDD60701.95142.axf

JavaScript Object Notation format (JSON) in row-major order
http://www.bom.gov.au/fwo/IDD60701/IDD60701.95142.json